Time;durP1;ratioP1;P1;durP2;ratioP2;P2;SDS_P1;SDS_P2;PMS_P1;PMS_P2;Temp;Humidity;BMP_temperature;BMP_pressure;BME280_temperature;BME280_humidity;BME280_pressure;Samples;Min_cycle;Max_cycle;Signal;HPM_P1;HPM_P2
2022/03/17 00:00:13;;;;;;;16.88;10.30;;;10.70;99.90;;;;;;5076484;28;20042;-83
2022/03/17 00:02:39;;;;;;;19.17;11.25;;;10.70;99.90;;;;;;5065654;28;20027;-82
2022/03/17 00:05:10;;;;;;;19.27;10.20;;;10.70;99.90;;;;;;5063944;28;20079;-82
2022/03/17 00:07:40;;;;;;;17.80;10.68;;;10.70;99.90;;;;;;5088824;28;20020;-80
2022/03/17 00:10:11;;;;;;;19.92;11.35;;;10.70;99.90;;;;;;5058345;28;20024;-81
2022/03/17 00:12:36;;;;;;;17.13;10.17;;;10.60;99.90;;;;;;5079274;28;20051;-80
2022/03/17 00:15:04;;;;;;;17.08;9.98;;;10.70;99.90;;;;;;5083320;28;20016;-80
2022/03/17 00:17:30;;;;;;;17.77;11.00;;;10.70;99.90;;;;;;5078602;28;20134;-81
2022/03/17 00:19:56;;;;;;;19.25;10.90;;;10.60;99.90;;;;;;5071124;28;20146;-83
2022/03/17 00:22:21;;;;;;;22.08;11.73;;;10.60;99.90;;;;;;5078245;28;20012;-84
2022/03/17 00:24:47;;;;;;;18.70;11.60;;;10.60;99.90;;;;;;5066818;28;20025;-80
2022/03/17 00:27:13;;;;;;;19.33;11.20;;;10.50;99.90;;;;;;5061665;28;20020;-83
2022/03/17 00:29:39;;;;;;;20.08;10.95;;;10.40;99.90;;;;;;5071098;28;20028;-85
2022/03/17 00:32:06;;;;;;;18.05;10.77;;;10.50;99.90;;;;;;5075689;28;20150;-82
2022/03/17 00:34:33;;;;;;;20.17;11.40;;;10.50;99.90;;;;;;5086629;28;20453;-81
2022/03/17 00:36:58;;;;;;;19.42;11.32;;;10.50;99.90;;;;;;5082415;28;20107;-82
2022/03/17 00:39:25;;;;;;;20.90;11.25;;;10.50;99.90;;;;;;5060776;28;20544;-82
2022/03/17 00:41:51;;;;;;;19.33;10.80;;;10.50;99.90;;;;;;5072781;28;20016;-80
2022/03/17 00:44:17;;;;;;;20.60;11.23;;;10.40;99.90;;;;;;5054822;28;20460;-81
2022/03/17 00:46:42;;;;;;;18.77;10.82;;;10.40;99.90;;;;;;5054798;28;20119;-81
2022/03/17 00:49:08;;;;;;;20.00;11.25;;;10.50;99.90;;;;;;5054025;28;20024;-84
2022/03/17 00:51:34;;;;;;;21.48;11.52;;;10.50;99.90;;;;;;5072865;28;20031;-83
2022/03/17 00:54:00;;;;;;;19.75;10.70;;;10.50;99.90;;;;;;5071997;28;20048;-84
2022/03/17 00:56:26;;;;;;;20.67;11.02;;;10.50;99.90;;;;;;5055055;28;20457;-82
2022/03/17 00:58:52;;;;;;;21.75;11.88;;;10.50;99.90;;;;;;5054798;28;20024;-78
2022/03/17 01:01:18;;;;;;;20.40;11.45;;;10.50;99.90;;;;;;5055197;28;20028;-84
2022/03/17 01:03:46;;;;;;;21.25;11.98;;;10.50;99.90;;;;;;5055850;28;20408;-84
2022/03/17 01:06:12;;;;;;;19.13;11.80;;;10.60;99.90;;;;;;5055307;28;20243;-84
2022/03/17 01:08:38;;;;;;;19.60;11.15;;;10.60;99.90;;;;;;5055277;28;20028;-79
2022/03/17 01:11:05;;;;;;;24.20;12.40;;;10.60;99.90;;;;;;5054554;28;20027;-79
2022/03/17 01:13:32;;;;;;;20.00;12.13;;;10.60;99.90;;;;;;5073004;28;20044;-79
2022/03/17 01:15:58;;;;;;;22.50;12.02;;;10.50;99.90;;;;;;5074985;28;20028;-79
2022/03/17 01:18:23;;;;;;;20.70;12.13;;;10.50;99.90;;;;;;5076074;28;20498;-80
2022/03/17 01:20:50;;;;;;;24.17;12.50;;;10.50;99.90;;;;;;5058745;28;20369;-79
2022/03/17 01:23:17;;;;;;;19.55;11.68;;;10.40;99.90;;;;;;5057938;28;20016;-79
2022/03/17 01:25:43;;;;;;;26.52;13.15;;;10.40;99.90;;;;;;5076057;28;20113;-80
2022/03/17 01:28:08;;;;;;;21.85;12.00;;;10.40;99.90;;;;;;5075757;28;20403;-79
2022/03/17 01:30:35;;;;;;;20.70;12.43;;;10.30;99.90;;;;;;5058322;28;20048;-79
2022/03/17 01:33:01;;;;;;;18.92;12.05;;;10.30;99.90;;;;;;5057817;28;20464;-79
2022/03/17 01:35:27;;;;;;;26.83;13.57;;;10.30;99.90;;;;;;5076063;28;20520;-79
2022/03/17 01:37:53;;;;;;;22.30;13.48;;;10.30;99.90;;;;;;5058579;28;20063;-82
2022/03/17 01:40:18;;;;;;;23.52;12.68;;;10.30;99.90;;;;;;5075864;28;20373;-82
2022/03/17 01:42:44;;;;;;;24.63;13.30;;;10.20;99.90;;;;;;5058414;28;20016;-82
2022/03/17 01:45:10;;;;;;;23.58;12.77;;;10.30;99.90;;;;;;5075779;28;20047;-82
2022/03/17 01:47:36;;;;;;;23.80;13.82;;;10.30;99.90;;;;;;5076127;28;20051;-83
2022/03/17 01:50:08;;;;;;;25.98;13.25;;;10.30;99.90;;;;;;5057670;28;20025;-82
2022/03/17 01:52:34;;;;;;;24.15;13.85;;;10.30;99.90;;;;;;5058735;28;20054;-82
2022/03/17 01:55:00;;;;;;;22.00;13.65;;;10.30;99.90;;;;;;5057894;28;20032;-82
2022/03/17 01:57:26;;;;;;;19.92;12.38;;;10.30;99.90;;;;;;5058450;28;20017;-83
2022/03/17 01:59:52;;;;;;;23.58;13.32;;;10.30;99.90;;;;;;5076041;28;20020;-80
2022/03/17 02:02:19;;;;;;;22.80;13.93;;;10.20;99.90;;;;;;5057639;28;20133;-80
2022/03/17 02:04:47;;;;;;;24.50;13.10;;;10.20;99.90;;;;;;5075976;28;20357;-80
2022/03/17 02:07:14;;;;;;;23.25;13.73;;;10.20;99.90;;;;;;5075433;28;20103;-80
2022/03/17 02:09:41;;;;;;;25.13;13.30;;;10.20;99.90;;;;;;5057945;28;20024;-80
2022/03/17 02:14:59;;;;;;;25.15;14.02;;;10.20;99.90;;;;;;5075743;28;20124;-80
2022/03/17 02:17:27;;;;;;;27.10;14.25;;;10.20;99.90;;;;;;5075749;28;20491;-80
2022/03/17 02:19:53;;;;;;;24.52;13.93;;;10.20;99.90;;;;;;5057712;28;20106;-80
2022/03/17 02:22:21;;;;;;;25.48;14.10;;;10.20;99.90;;;;;;5057160;28;20091;-79
2022/03/17 02:27:42;;;;;;;25.58;13.75;;;10.20;99.90;;;;;;5075599;28;20423;-80
2022/03/17 02:30:10;;;;;;;22.88;13.65;;;10.20;99.90;;;;;;5057159;28;20021;-80
2022/03/17 02:32:36;;;;;;;27.45;13.52;;;10.20;99.90;;;;;;5057572;28;20032;-81
2022/03/17 02:35:11;;;;;;;22.95;13.45;;;10.20;99.90;;;;;;5074476;28;20020;-81
2022/03/17 02:37:37;;;;;;;24.60;13.77;;;10.20;99.90;;;;;;5075354;28;20017;-81
2022/03/17 02:40:06;;;;;;;22.58;13.18;;;10.20;99.90;;;;;;5074441;28;20021;-80
2022/03/17 02:42:32;;;;;;;24.48;13.30;;;10.20;99.90;;;;;;5074965;28;20095;-83
2022/03/17 02:44:59;;;;;;;23.23;13.40;;;10.20;99.90;;;;;;5074675;28;20044;-78
2022/03/17 02:47:26;;;;;;;26.00;13.90;;;10.20;99.90;;;;;;5057189;28;20024;-81
2022/03/17 02:49:55;;;;;;;25.58;12.85;;;10.20;99.90;;;;;;5057134;28;20052;-81
2022/03/17 02:52:27;;;;;;;25.13;13.68;;;10.10;99.90;;;;;;5056869;28;20078;-81
2022/03/17 02:54:53;;;;;;;23.08;13.45;;;10.10;99.90;;;;;;5057232;28;20020;-81
2022/03/17 02:57:19;;;;;;;24.98;13.07;;;10.00;99.90;;;;;;5056363;28;20032;-81
2022/03/17 02:59:46;;;;;;;23.35;12.88;;;10.00;99.90;;;;;;5074814;28;20052;-81
2022/03/17 03:02:14;;;;;;;21.33;12.57;;;10.00;99.90;;;;;;5074345;28;20017;-81
2022/03/17 03:04:40;;;;;;;22.60;12.57;;;10.00;99.90;;;;;;5056638;28;20031;-81
2022/03/17 03:07:06;;;;;;;21.00;12.80;;;10.00;99.90;;;;;;5074021;28;20032;-81
2022/03/17 03:09:32;;;;;;;22.73;12.45;;;10.00;99.90;;;;;;5074483;28;20302;-81
2022/03/17 03:11:58;;;;;;;22.58;12.40;;;10.00;99.90;;;;;;5057012;28;20130;-80
2022/03/17 03:14:24;;;;;;;23.83;13.10;;;10.00;99.90;;;;;;5073874;28;20114;-80
2022/03/17 03:16:51;;;;;;;19.88;12.43;;;9.90;99.90;;;;;;5074474;28;20050;-80
2022/03/17 03:19:16;;;;;;;21.95;12.98;;;10.00;99.90;;;;;;5055907;28;20044;-80
2022/03/17 03:21:45;;;;;;;21.52;12.27;;;9.90;99.90;;;;;;5056839;28;20021;-80
2022/03/17 03:24:12;;;;;;;21.00;11.70;;;10.00;99.90;;;;;;5073779;28;20048;-79
2022/03/17 03:26:43;;;;;;;21.35;12.80;;;9.90;99.90;;;;;;5056480;28;20101;-80
2022/03/17 03:29:17;;;;;;;23.08;12.63;;;10.00;99.90;;;;;;5056128;28;20016;-79
2022/03/17 03:31:43;;;;;;;24.27;12.40;;;10.00;99.90;;;;;;5056596;28;20514;-79
2022/03/17 03:34:08;;;;;;;22.92;11.45;;;10.00;99.90;;;;;;5055809;28;20033;-79
2022/03/17 03:39:18;;;;;;;25.05;11.93;;;10.00;99.90;;;;;;5073444;28;20031;-80
2022/03/17 03:41:44;;;;;;;22.83;12.07;;;10.00;99.90;;;;;;5056370;28;20020;-83
2022/03/17 03:44:12;;;;;;;21.70;11.88;;;10.00;99.90;;;;;;5055854;28;20027;-82
2022/03/17 03:46:38;;;;;;;24.42;11.60;;;9.90;99.90;;;;;;5074139;28;20111;-83
2022/03/17 03:49:03;;;;;;;22.58;11.88;;;10.00;99.90;;;;;;5055787;28;20067;-81
2022/03/17 03:51:29;;;;;;;24.88;12.05;;;9.90;99.90;;;;;;5056272;28;20107;-83
2022/03/17 03:56:53;;;;;;;24.92;11.32;;;10.00;99.90;;;;;;5064697;28;20068;-83
2022/03/17 03:59:21;;;;;;;25.95;12.63;;;10.00;99.90;;;;;;5073390;28;20020;-82
2022/03/17 04:01:58;;;;;;;25.17;13.00;;;9.90;99.90;;;;;;5074154;28;20488;-83
2022/03/17 04:04:24;;;;;;;31.25;13.70;;;9.90;99.90;;;;;;5055665;28;20021;-82
2022/03/17 04:06:51;;;;;;;26.98;13.02;;;9.90;99.90;;;;;;5055978;28;20032;-83
2022/03/17 04:09:21;;;;;;;27.58;14.10;;;9.90;99.90;;;;;;5073253;28;20023;-82
2022/03/17 04:11:47;;;;;;;27.67;14.35;;;9.90;99.90;;;;;;5056025;28;20055;-83
2022/03/17 04:14:14;;;;;;;27.35;14.18;;;9.90;99.90;;;;;;5055795;28;20013;-82
2022/03/17 04:16:40;;;;;;;24.40;13.82;;;9.90;99.90;;;;;;5055915;28;20060;-83
2022/03/17 04:19:06;;;;;;;25.88;12.75;;;10.00;99.90;;;;;;5055177;28;20542;-82
2022/03/17 04:21:32;;;;;;;28.48;13.57;;;9.90;99.90;;;;;;5056265;28;20036;-82
2022/03/17 04:23:59;;;;;;;30.05;14.50;;;9.90;99.90;;;;;;5056097;28;20021;-83
2022/03/17 04:26:26;;;;;;;29.67;14.40;;;9.90;99.90;;;;;;5055648;28;20036;-82
2022/03/17 04:28:52;;;;;;;28.23;13.93;;;10.00;99.90;;;;;;5073759;28;20032;-83
2022/03/17 04:31:18;;;;;;;28.92;15.02;;;10.00;99.90;;;;;;5055275;28;20018;-82
2022/03/17 04:33:44;;;;;;;28.20;14.73;;;10.00;99.90;;;;;;5073651;28;20423;-83
2022/03/17 04:36:12;;;;;;;30.13;15.93;;;10.00;99.90;;;;;;5055381;28;20119;-80
2022/03/17 04:38:38;;;;;;;33.65;16.55;;;9.90;99.90;;;;;;5055796;28;20346;-81
2022/03/17 04:41:04;;;;;;;36.08;16.77;;;9.90;99.90;;;;;;5055826;28;20040;-84
2022/03/17 04:43:30;;;;;;;41.13;17.00;;;9.90;99.90;;;;;;5055915;28;20040;-84
2022/03/17 04:45:56;;;;;;;38.65;18.10;;;9.90;99.90;;;;;;5073476;28;20449;-83
2022/03/17 04:48:21;;;;;;;37.45;17.48;;;9.80;99.90;;;;;;5073306;28;20477;-84
2022/03/17 04:50:47;;;;;;;32.78;16.08;;;9.80;99.90;;;;;;5059461;28;20028;-82
2022/03/17 04:53:29;;;;;;;33.17;16.23;;;9.90;99.90;;;;;;5059074;28;20020;-82
2022/03/17 04:55:57;;;;;;;32.10;15.50;;;9.90;99.90;;;;;;5059511;28;20040;-82
2022/03/17 04:58:23;;;;;;;34.55;15.68;;;9.80;99.90;;;;;;5058282;28;20051;-81
2022/03/17 05:00:49;;;;;;;31.35;15.40;;;9.80;99.90;;;;;;5059376;28;20025;-80
2022/03/17 05:03:15;;;;;;;33.65;16.73;;;9.90;99.90;;;;;;5076373;28;20023;-80
2022/03/17 05:05:40;;;;;;;35.72;17.60;;;9.80;99.90;;;;;;5059011;28;20024;-81
2022/03/17 05:08:06;;;;;;;34.45;16.58;;;9.90;99.90;;;;;;5058984;28;20028;-78
2022/03/17 05:10:35;;;;;;;43.03;18.67;;;9.80;99.90;;;;;;5058999;28;20021;-81
2022/03/17 05:13:03;;;;;;;38.55;18.02;;;9.80;99.90;;;;;;5076769;28;20020;-81
2022/03/17 05:15:29;;;;;;;36.08;17.90;;;9.80;99.90;;;;;;5076087;28;20047;-82
2022/03/17 05:17:54;;;;;;;36.67;17.85;;;9.90;99.90;;;;;;5058743;28;20016;-82
2022/03/17 05:20:21;;;;;;;35.38;16.42;;;9.90;99.90;;;;;;5058771;28;20032;-82
2022/03/17 05:22:47;;;;;;;37.25;17.58;;;9.90;99.90;;;;;;5076759;28;20021;-82
2022/03/17 05:25:13;;;;;;;40.30;18.70;;;9.90;99.90;;;;;;5058382;28;20020;-82
2022/03/17 05:27:39;;;;;;;38.28;18.92;;;9.80;99.90;;;;;;5059041;28;20020;-82
2022/03/17 05:30:06;;;;;;;42.40;19.23;;;9.90;99.90;;;;;;5058845;28;20029;-83
2022/03/17 05:32:32;;;;;;;34.97;17.30;;;9.90;99.90;;;;;;5076247;28;20458;-83
2022/03/17 05:34:58;;;;;;;42.25;18.25;;;9.80;99.90;;;;;;5076516;28;20017;-80
2022/03/17 05:37:24;;;;;;;40.03;18.58;;;9.80;99.90;;;;;;5075623;28;20056;-80
2022/03/17 05:39:50;;;;;;;38.08;19.23;;;9.90;99.90;;;;;;5058714;28;20020;-80
2022/03/17 05:42:16;;;;;;;36.97;18.38;;;9.90;99.90;;;;;;5075542;28;20073;-80
2022/03/17 05:44:41;;;;;;;37.63;18.27;;;9.90;99.90;;;;;;5058580;28;20115;-80
2022/03/17 05:47:07;;;;;;;36.08;17.90;;;9.90;99.90;;;;;;5058445;28;20346;-81
2022/03/17 05:49:32;;;;;;;36.47;18.17;;;9.90;99.90;;;;;;5057714;28;20025;-80
2022/03/17 05:51:59;;;;;;;38.38;18.17;;;9.90;99.90;;;;;;5058345;28;20040;-80
2022/03/17 05:54:25;;;;;;;37.30;18.70;;;9.90;99.90;;;;;;5057793;28;20445;-80
2022/03/17 05:56:51;;;;;;;38.55;18.73;;;9.90;99.90;;;;;;5058111;28;20465;-80
2022/03/17 05:59:16;;;;;;;45.00;19.25;;;9.90;99.90;;;;;;5057538;28;20051;-83
2022/03/17 06:01:42;;;;;;;43.78;19.10;;;9.90;99.90;;;;;;5057247;28;20069;-79
2022/03/17 06:04:07;;;;;;;41.95;20.10;;;10.00;99.90;;;;;;5058018;28;20034;-84
2022/03/17 06:06:33;;;;;;;38.20;18.35;;;10.00;99.90;;;;;;5057771;28;20031;-86
2022/03/17 06:08:59;;;;;;;37.47;19.65;;;10.00;99.90;;;;;;5058117;28;20024;-86
2022/03/17 06:11:25;;;;;;;40.03;18.73;;;9.90;99.90;;;;;;5057688;28;20035;-82
2022/03/17 06:13:53;;;;;;;38.88;19.00;;;9.90;99.90;;;;;;5075566;28;20016;-81
2022/03/17 06:16:20;;;;;;;41.85;19.65;;;10.00;99.90;;;;;;5074873;28;20028;-81
2022/03/17 06:18:46;;;;;;;37.90;18.88;;;10.00;99.90;;;;;;5057333;28;20051;-80
2022/03/17 06:21:12;;;;;;;35.88;18.02;;;10.00;99.90;;;;;;5074916;28;20449;-79
2022/03/17 06:23:37;;;;;;;33.05;18.30;;;10.10;99.90;;;;;;5075607;28;20035;-80
2022/03/17 06:26:03;;;;;;;36.92;18.35;;;10.00;99.90;;;;;;5075270;28;20028;-80
2022/03/17 06:28:29;;;;;;;35.75;18.70;;;9.90;99.90;;;;;;5056957;28;20067;-80
2022/03/17 06:30:54;;;;;;;36.60;18.25;;;10.00;99.90;;;;;;5075329;28;20411;-80
2022/03/17 06:33:20;;;;;;;36.47;18.55;;;10.00;99.90;;;;;;5056835;28;20025;-79
2022/03/17 06:35:46;;;;;;;36.75;18.63;;;10.00;99.90;;;;;;5074798;28;20035;-78
2022/03/17 06:38:12;;;;;;;37.55;17.73;;;10.00;99.90;;;;;;5056052;28;20370;-77
2022/03/17 06:40:37;;;;;;;40.88;20.35;;;10.00;99.90;;;;;;5056782;28;20458;-78
2022/03/17 06:43:04;;;;;;;36.97;18.88;;;10.00;99.90;;;;;;5074518;28;20020;-78
2022/03/17 06:45:30;;;;;;;43.38;20.45;;;10.00;99.90;;;;;;5074050;28;20035;-78
2022/03/17 06:47:56;;;;;;;41.47;18.95;;;9.90;99.90;;;;;;5074767;28;20115;-82
2022/03/17 06:50:23;;;;;;;39.10;20.23;;;9.90;99.90;;;;;;5074496;28;20096;-81
2022/03/17 06:52:49;;;;;;;37.80;18.85;;;9.90;99.90;;;;;;5057414;28;20021;-82
2022/03/17 06:55:15;;;;;;;36.30;19.00;;;10.00;99.90;;;;;;5056662;28;20141;-81
2022/03/17 06:57:42;;;;;;;34.05;17.70;;;9.90;99.90;;;;;;5057376;28;20100;-81
2022/03/17 07:00:10;;;;;;;33.70;17.05;;;9.90;99.90;;;;;;5074892;28;20020;-82
2022/03/17 07:02:36;;;;;;;30.92;17.48;;;9.90;99.90;;;;;;5056725;28;20473;-81
2022/03/17 07:05:03;;;;;;;32.55;17.73;;;10.00;99.90;;;;;;5056976;28;20021;-82
2022/03/17 07:07:29;;;;;;;33.55;17.70;;;9.90;99.90;;;;;;5056487;28;20465;-81
2022/03/17 07:09:54;;;;;;;29.95;16.33;;;10.00;99.90;;;;;;5074562;28;20070;-81
2022/03/17 07:12:20;;;;;;;31.05;17.20;;;10.00;99.90;;;;;;5055355;28;20024;-80
2022/03/17 07:14:46;;;;;;;36.05;17.05;;;9.90;99.90;;;;;;5074192;28;20035;-80
2022/03/17 07:17:11;;;;;;;33.03;17.65;;;10.00;99.90;;;;;;5056489;28;20370;-80
2022/03/17 07:19:37;;;;;;;34.28;17.48;;;10.10;99.90;;;;;;5055952;28;20049;-80
2022/03/17 07:22:03;;;;;;;35.00;18.08;;;10.10;99.90;;;;;;5056517;28;20023;-80
2022/03/17 07:24:29;;;;;;;33.50;17.48;;;10.20;99.90;;;;;;5055822;28;20032;-78
2022/03/17 07:26:55;;;;;;;35.92;17.77;;;10.20;99.90;;;;;;5055724;28;20458;-78
2022/03/17 07:29:20;;;;;;;36.15;18.60;;;10.20;99.90;;;;;;5055430;28;20017;-78
2022/03/17 07:31:46;;;;;;;37.72;19.27;;;10.20;99.90;;;;;;5055911;28;20052;-79
2022/03/17 07:34:12;;;;;;;34.65;18.40;;;10.20;99.90;;;;;;5073885;28;20046;-79
2022/03/17 07:36:40;;;;;;;33.33;18.15;;;10.20;99.90;;;;;;5073314;28;20491;-79
2022/03/17 07:39:06;;;;;;;36.97;18.30;;;10.20;99.90;;;;;;5056434;28;20044;-79
2022/03/17 07:41:32;;;;;;;36.97;19.52;;;10.20;99.90;;;;;;5073406;28;20024;-79
2022/03/17 07:43:59;;;;;;;34.47;18.42;;;10.10;99.90;;;;;;5073797;28;20103;-79
2022/03/17 07:46:26;;;;;;;35.97;17.48;;;10.10;99.90;;;;;;5055387;28;20032;-78
2022/03/17 07:48:52;;;;;;;38.40;19.05;;;10.10;99.90;;;;;;5055825;28;20059;-78
2022/03/17 07:51:18;;;;;;;34.33;18.98;;;10.20;99.90;;;;;;5055227;28;20025;-78
2022/03/17 07:53:44;;;;;;;38.83;19.55;;;10.20;99.90;;;;;;5055787;28;20027;-79
2022/03/17 07:56:12;;;;;;;34.88;19.65;;;10.30;99.90;;;;;;5055727;28;20028;-80
2022/03/17 07:58:39;;;;;;;38.40;19.38;;;10.30;99.90;;;;;;5055490;28;20042;-80
2022/03/17 08:01:05;;;;;;;33.55;18.45;;;10.30;99.90;;;;;;5056066;28;20461;-79
2022/03/17 08:03:32;;;;;;;37.33;19.35;;;10.30;99.90;;;;;;5055463;28;20025;-80
2022/03/17 08:05:57;;;;;;;37.25;18.60;;;10.40;99.90;;;;;;5055730;28;20020;-79
2022/03/17 08:08:24;;;;;;;34.05;18.25;;;10.50;99.90;;;;;;5055531;28;20043;-80
2022/03/17 08:10:49;;;;;;;33.72;18.67;;;10.40;99.90;;;;;;5073704;28;20102;-80
2022/03/17 08:13:15;;;;;;;34.05;18.75;;;10.40;99.90;;;;;;5073414;28;20025;-80
2022/03/17 08:15:42;;;;;;;37.35;20.17;;;10.50;99.90;;;;;;5073396;28;20346;-82
2022/03/17 08:18:08;;;;;;;38.28;19.80;;;10.50;99.90;;;;;;5055498;28;20044;-82
2022/03/17 08:20:41;;;;;;;34.80;18.05;;;10.50;99.90;;;;;;5055495;28;20028;-80
2022/03/17 08:23:07;;;;;;;35.03;19.08;;;10.50;99.90;;;;;;5073903;28;20074;-82
2022/03/17 08:25:34;;;;;;;35.83;18.75;;;10.60;99.90;;;;;;5076931;28;20031;-82
2022/03/17 08:28:02;;;;;;;39.53;19.95;;;10.60;99.90;;;;;;5077006;28;20017;-83
2022/03/17 08:30:29;;;;;;;38.60;19.60;;;10.60;99.90;;;;;;5058719;28;20068;-82
2022/03/17 08:32:55;;;;;;;35.17;19.02;;;10.50;99.90;;;;;;5059224;28;20020;-81
2022/03/17 08:35:20;;;;;;;39.38;20.55;;;10.60;99.90;;;;;;5076550;28;20012;-82
2022/03/17 08:37:46;;;;;;;39.33;19.83;;;10.70;99.90;;;;;;5058858;28;20074;-80
2022/03/17 08:40:14;;;;;;;37.47;20.00;;;10.70;99.90;;;;;;5076267;28;20020;-81
2022/03/17 08:42:41;;;;;;;37.53;20.23;;;10.70;99.90;;;;;;5058488;28;20098;-81
2022/03/17 08:50:40;;;;;;;37.35;20.35;;;10.90;99.90;;;;;;5071227;28;20055;-80
2022/03/17 08:53:05;;;;;;;40.92;20.00;;;10.90;99.90;;;;;;5054239;28;20025;-79
2022/03/17 08:55:31;;;;;;;35.88;20.45;;;10.90;99.90;;;;;;5072896;28;20478;-79
2022/03/17 08:57:57;;;;;;;44.08;20.92;;;10.90;99.90;;;;;;5074023;28;20141;-79
2022/03/17 09:00:23;;;;;;;41.97;20.38;;;10.80;99.90;;;;;;5071351;28;20131;-78
2022/03/17 09:02:50;;;;;;;40.70;20.52;;;10.90;99.90;;;;;;5080738;28;20272;-78
2022/03/17 09:05:15;;;;;;;40.45;20.90;;;10.80;99.90;;;;;;5082543;28;20029;-79
2022/03/17 09:07:41;;;;;;;39.30;20.73;;;10.90;99.90;;;;;;5078030;28;20240;-78
2022/03/17 09:10:07;;;;;;;35.35;19.70;;;10.90;99.90;;;;;;5072180;28;20024;-80
2022/03/17 09:12:37;;;;;;;40.72;20.13;;;11.00;99.90;;;;;;5045837;28;20081;-79
2022/03/17 09:15:04;;;;;;;38.80;21.08;;;11.10;99.90;;;;;;5084357;28;20021;-78
2022/03/17 09:17:30;;;;;;;37.40;20.08;;;11.10;99.90;;;;;;5086288;28;20036;-80
2022/03/17 09:19:56;;;;;;;37.10;20.38;;;11.20;99.90;;;;;;5059049;28;20159;-80
2022/03/17 09:22:22;;;;;;;37.95;20.50;;;11.30;99.90;;;;;;5060800;28;20039;-79
2022/03/17 09:24:48;;;;;;;38.72;21.00;;;11.30;99.90;;;;;;5086103;28;20028;-80
2022/03/17 09:27:14;;;;;;;39.05;19.70;;;11.20;99.90;;;;;;5057789;28;20553;-80
2022/03/17 09:29:40;;;;;;;36.88;19.80;;;11.20;99.90;;;;;;5075443;28;20035;-79
2022/03/17 09:32:09;;;;;;;37.00;19.25;;;11.30;99.90;;;;;;5075760;28;20456;-83
2022/03/17 09:34:35;;;;;;;38.25;20.10;;;11.30;99.90;;;;;;5053843;28;20024;-81
2022/03/17 09:37:01;;;;;;;37.80;20.15;;;11.30;99.90;;;;;;5055594;28;20039;-80
2022/03/17 09:42:16;;;;;;;33.97;19.15;;;11.30;99.90;;;;;;5075973;28;20028;-80
2022/03/17 09:44:46;;;;;;;32.88;18.45;;;11.40;99.90;;;;;;5055987;28;20055;-81
2022/03/17 09:47:18;;;;;;;37.58;19.55;;;11.50;99.90;;;;;;5056075;28;20026;-80
2022/03/17 09:49:46;;;;;;;33.47;18.88;;;11.40;99.90;;;;;;5054049;28;20028;-81
2022/03/17 09:52:14;;;;;;;36.58;19.85;;;11.40;99.90;;;;;;5047890;28;20082;-85
2022/03/17 09:54:44;;;;;;;33.80;18.85;;;11.40;99.90;;;;;;5043369;28;20048;-82
2022/03/17 09:57:10;;;;;;;36.45;20.40;;;11.30;99.90;;;;;;5046349;28;20040;-79
2022/03/17 09:59:36;;;;;;;31.38;18.48;;;11.40;99.90;;;;;;5053797;28;20085;-79
2022/03/17 10:02:02;;;;;;;35.90;19.58;;;11.50;99.90;;;;;;5053530;28;20028;-80
2022/03/17 10:04:32;;;;;;;36.15;19.95;;;11.50;99.90;;;;;;5055169;28;20069;-81
2022/03/17 10:06:59;;;;;;;35.15;20.20;;;11.50;99.90;;;;;;5052021;28;20024;-82
2022/03/17 10:09:28;;;;;;;35.88;18.95;;;11.50;99.90;;;;;;5055094;28;20047;-80
2022/03/17 10:12:02;;;;;;;32.70;17.92;;;11.60;99.90;;;;;;5054516;28;20521;-81
2022/03/17 10:14:41;;;;;;;35.47;19.08;;;11.60;99.90;;;;;;5071651;28;20052;-83
2022/03/17 10:17:31;;;;;;;33.40;18.95;;;11.70;99.90;;;;;;5078756;28;20036;-83
2022/03/17 10:20:22;;;;;;;33.47;18.48;;;11.70;99.90;;;;;;5056382;28;20065;-82
2022/03/17 10:22:54;;;;;;;33.08;19.27;;;11.70;99.90;;;;;;5066208;28;20024;-80
2022/03/17 10:25:23;;;;;;;34.15;18.77;;;11.80;99.90;;;;;;5064361;28;20032;-81
2022/03/17 10:27:51;;;;;;;32.70;19.65;;;11.80;99.90;;;;;;5063187;28;20078;-80
2022/03/17 10:30:35;;;;;;;36.33;19.75;;;11.90;99.90;;;;;;5060659;28;20237;-83
2022/03/17 10:33:11;;;;;;;32.42;18.10;;;11.90;99.90;;;;;;5061246;28;20021;-78
2022/03/17 10:35:38;;;;;;;34.83;18.17;;;11.90;99.90;;;;;;5063941;28;20138;-78
2022/03/17 10:38:11;;;;;;;31.27;17.25;;;11.90;99.90;;;;;;5049478;28;20119;-79
2022/03/17 10:40:37;;;;;;;32.22;15.95;;;12.00;99.90;;;;;;5063038;28;20031;-79
2022/03/17 10:43:24;;;;;;;31.38;16.58;;;12.10;99.90;;;;;;5065667;28;20373;-79
2022/03/17 10:46:17;;;;;;;25.23;16.10;;;12.20;99.90;;;;;;5065236;28;20025;-78
2022/03/17 10:48:56;;;;;;;29.20;16.20;;;12.30;99.90;;;;;;5065655;28;20430;-77
2022/03/17 10:51:37;;;;;;;30.65;16.27;;;12.30;99.90;;;;;;5076735;28;20020;-78
2022/03/17 10:54:03;;;;;;;27.63;14.67;;;12.40;99.90;;;;;;5076436;28;20155;-77
2022/03/17 10:56:29;;;;;;;29.60;15.38;;;12.40;99.90;;;;;;5057471;28;20098;-78
2022/03/17 10:58:55;;;;;;;31.17;15.45;;;12.50;99.90;;;;;;5076931;28;20021;-78
2022/03/17 11:01:35;;;;;;;27.30;15.80;;;12.50;99.90;;;;;;5062766;28;20031;-79
2022/03/17 11:04:02;;;;;;;34.08;17.83;;;12.60;99.90;;;;;;5061092;28;20048;-82
2022/03/17 11:06:28;;;;;;;28.25;17.73;;;12.70;99.90;;;;;;5060507;28;20020;-84
2022/03/17 11:08:55;;;;;;;29.48;17.00;;;12.80;99.90;;;;;;5062752;28;20025;-82
2022/03/17 11:11:20;;;;;;;33.85;17.30;;;12.90;99.90;;;;;;5078618;28;20034;-83
2022/03/17 11:13:47;;;;;;;31.63;18.00;;;13.00;99.90;;;;;;5065146;28;20610;-83
2022/03/17 11:16:14;;;;;;;35.28;18.45;;;13.10;99.90;;;;;;5067255;28;20032;-82
2022/03/17 11:18:41;;;;;;;33.63;18.83;;;13.00;99.90;;;;;;5065264;28;20052;-81
2022/03/17 11:21:15;;;;;;;39.65;19.40;;;13.00;99.90;;;;;;5065385;28;20078;-80
2022/03/17 11:23:59;;;;;;;33.85;18.65;;;13.00;99.90;;;;;;5058401;28;20111;-81
2022/03/17 11:26:44;;;;;;;34.53;19.35;;;13.00;99.90;;;;;;5060651;28;20086;-82
2022/03/17 11:29:18;;;;;;;38.20;21.13;;;13.00;99.90;;;;;;5054456;28;20402;-81
2022/03/17 11:31:52;;;;;;;34.03;20.15;;;13.00;99.90;;;;;;5064705;28;20021;-78
2022/03/17 11:34:46;;;;;;;35.38;19.80;;;13.00;99.90;;;;;;5053709;28;20025;-78
2022/03/17 11:37:27;;;;;;;35.75;19.25;;;13.00;99.90;;;;;;5050557;28;20033;-78
2022/03/17 11:40:03;;;;;;;37.03;19.83;;;13.00;99.90;;;;;;5051191;28;20428;-78
2022/03/17 11:42:46;;;;;;;40.65;20.52;;;13.00;99.90;;;;;;5051568;28;20344;-78
2022/03/17 11:45:15;;;;;;;36.97;19.80;;;13.00;99.90;;;;;;5055136;28;20028;-78
2022/03/17 11:47:56;;;;;;;35.90;21.10;;;13.00;99.90;;;;;;5053633;28;20067;-79
2022/03/17 11:50:34;;;;;;;35.65;20.25;;;12.90;99.90;;;;;;5065066;28;20523;-78
2022/03/17 11:53:01;;;;;;;36.47;20.55;;;13.00;99.90;;;;;;5065768;28;20024;-80
2022/03/17 11:55:48;;;;;;;39.67;21.75;;;13.00;99.90;;;;;;5054234;28;20078;-78
2022/03/17 11:58:23;;;;;;;37.03;20.98;;;13.00;99.90;;;;;;5063424;28;20548;-78
2022/03/17 12:01:03;;;;;;;36.85;20.25;;;13.00;99.90;;;;;;5063707;28;20025;-79
2022/03/17 12:03:41;;;;;;;33.80;19.60;;;12.90;99.90;;;;;;5060820;28;20087;-84
2022/03/17 12:06:17;;;;;;;36.65;19.70;;;13.00;99.90;;;;;;5064301;28;20032;-84
2022/03/17 12:08:51;;;;;;;36.85;20.17;;;13.00;99.90;;;;;;5052897;28;20036;-81
2022/03/17 12:11:19;;;;;;;34.45;18.90;;;13.00;99.90;;;;;;5058407;28;20032;-81
2022/03/17 12:14:22;;;;;;;37.70;19.67;;;13.10;99.90;;;;;;5063361;28;20115;-82
2022/03/17 12:17:19;;;;;;;31.95;18.58;;;13.00;98.90;;;;;;5064199;28;20055;-87
2022/03/17 12:19:50;;;;;;;31.13;18.00;;;13.00;97.60;;;;;;5054271;28;20053;-83
2022/03/17 12:22:17;;;;;;;33.55;19.15;;;12.90;98.40;;;;;;5066069;28;20485;-84
2022/03/17 12:24:58;;;;;;;36.45;18.70;;;13.00;98.70;;;;;;5064070;28;20451;-81
2022/03/17 12:27:28;;;;;;;31.73;18.10;;;12.90;97.60;;;;;;5056212;28;20466;-81
2022/03/17 12:29:59;;;;;;;29.65;18.65;;;12.90;97.80;;;;;;5062515;28;20044;-79
2022/03/17 12:32:27;;;;;;;34.83;19.08;;;12.90;98.00;;;;;;5064878;28;20032;-80
2022/03/17 12:34:55;;;;;;;30.48;17.02;;;12.90;97.30;;;;;;5055155;28;20120;-79
2022/03/17 12:37:24;;;;;;;33.40;18.75;;;12.90;97.50;;;;;;5063597;28;20382;-78
2022/03/17 12:39:54;;;;;;;32.47;17.77;;;12.90;97.70;;;;;;5045653;28;20033;-83
2022/03/17 12:42:21;;;;;;;30.40;17.35;;;13.00;97.50;;;;;;5061523;28;20020;-78
2022/03/17 12:44:51;;;;;;;32.42;17.67;;;13.00;97.70;;;;;;5052884;28;20044;-78
2022/03/17 12:47:19;;;;;;;33.45;18.02;;;13.10;97.70;;;;;;5049891;28;20029;-79
2022/03/17 12:49:45;;;;;;;30.55;17.75;;;13.20;97.10;;;;;;5056288;28;20044;-79
2022/03/17 12:52:12;;;;;;;31.35;17.75;;;13.20;96.90;;;;;;5061004;28;20024;-80